Sauk Village, Illinois
Current Conditions -  °F | °C
As of 1:15 AM on Monday 24 Nov 2014 (Local Time) from KIGQ Reporting Station
Moderate Rain Moderate Rain  
Wind Chill: 45°   Ceiling: 400
Heat Index: 49°   Visibility: 10mi
Dew Point: 49°   Wind: 10mph
Humidity: 99%   Direction: 230°SW
Pressure: 29.1"   Gusts: NA
Location:  41.5054°N, 87.5907°W
Report Text: KIGQ 240715Z AUTO 23009KT 10SM RA OVC004 10/10 A2910 RMK AO2 T00970095
Loading
Personal Weather Stations






























Interactive Weather Map New forecast layout! Learn more

10-Day Weather Forecast

Advertisements
Track Severe Weather on mobile